Time;durP1;ratioP1;P1;durP2;ratioP2;P2;SDS_P1;SDS_P2;PMS_P1;PMS_P2;Temp;Humidity;BMP_temperature;BMP_pressure;BME280_temperature;BME280_humidity;BME280_pressure;Samples;Min_cycle;Max_cycle;Signal;HPM_P1;HPM_P2
2022/10/01 00:02:08;;;;;;;4.87;3.50;;;14.60;99.90;;;;;;5089247;28;20210;-32
2022/10/01 00:04:36;;;;;;;4.80;2.70;;;14.60;99.90;;;;;;5088647;28;20204;-33
2022/10/01 00:07:09;;;;;;;3.43;2.97;;;14.60;99.90;;;;;;5087680;28;20618;-32
2022/10/01 00:09:37;;;;;;;3.57;2.83;;;14.60;99.90;;;;;;5084722;28;20332;-32
2022/10/01 00:12:07;;;;;;;3.20;2.80;;;14.60;99.90;;;;;;5092879;28;20202;-33
2022/10/01 00:14:37;;;;;;;4.03;2.70;;;14.60;99.90;;;;;;5073045;28;20215;-33
2022/10/01 00:17:07;;;;;;;3.37;2.50;;;14.60;99.90;;;;;;5081678;28;20619;-32
2022/10/01 00:19:39;;;;;;;5.30;2.63;;;14.50;99.90;;;;;;5090189;28;20202;-33
2022/10/01 00:22:06;;;;;;;3.10;2.70;;;14.50;99.90;;;;;;5090863;28;20307;-33
2022/10/01 00:24:36;;;;;;;3.67;2.50;;;14.50;99.90;;;;;;5091664;28;20214;-32
2022/10/01 00:27:03;;;;;;;3.93;2.70;;;14.50;99.90;;;;;;5097569;28;20817;-33
2022/10/01 00:29:36;;;;;;;5.67;2.73;;;14.40;99.90;;;;;;5091315;28;20209;-33
2022/10/01 00:32:06;;;;;;;4.37;2.40;;;14.50;99.90;;;;;;5085671;28;20218;-33
2022/10/01 00:34:35;;;;;;;3.00;2.27;;;14.50;99.90;;;;;;5093322;28;20217;-32
2022/10/01 00:37:03;;;;;;;3.13;2.40;;;14.50;99.90;;;;;;5091889;28;20206;-32
2022/10/01 00:39:35;;;;;;;4.87;2.50;;;14.50;99.90;;;;;;5096131;27;20198;-32
2022/10/01 00:42:14;;;;;;;3.97;2.30;;;14.50;99.90;;;;;;5089287;28;20587;-33
2022/10/01 00:44:44;;;;;;;2.30;1.80;;;14.50;99.90;;;;;;5094475;28;20210;-33
2022/10/01 00:47:23;;;;;;;4.93;2.00;;;14.50;99.90;;;;;;5088444;28;20212;-33
2022/10/01 00:50:00;;;;;;;3.10;2.00;;;14.50;99.90;;;;;;5089892;28;20218;-32
2022/10/01 00:52:38;;;;;;;3.20;1.70;;;14.50;99.90;;;;;;5088062;28;20209;-33
2022/10/01 00:55:12;;;;;;;1.63;1.50;;;14.50;99.90;;;;;;5091091;28;20228;-32
2022/10/01 00:57:40;;;;;;;3.30;1.50;;;14.50;99.90;;;;;;5097529;28;20210;-32
2022/10/01 01:00:13;;;;;;;1.40;1.27;;;14.40;99.90;;;;;;5086343;28;20198;-32
2022/10/01 01:02:42;;;;;;;1.40;1.30;;;14.40;99.90;;;;;;5090489;28;20247;-32
2022/10/01 01:05:12;;;;;;;1.93;1.33;;;14.40;99.90;;;;;;5090858;28;20687;-32
2022/10/01 01:07:46;;;;;;;2.07;1.50;;;14.50;99.90;;;;;;5090213;28;20295;-32
2022/10/01 01:10:21;;;;;;;1.50;0.90;;;14.50;99.90;;;;;;5087819;28;20687;-32
2022/10/01 01:13:27;;;;;;;1.10;1.00;;;14.40;99.90;;;;;;5090252;28;20206;-33
2022/10/01 01:16:05;;;;;;;3.33;1.00;;;14.40;99.90;;;;;;5111249;27;20657;-32
2022/10/01 01:19:06;;;;;;;0.70;0.70;;;14.40;99.90;;;;;;5101428;28;20575;-32
2022/10/01 01:21:45;;;;;;;2.37;1.40;;;14.40;99.90;;;;;;5051736;28;20195;-33
2022/10/01 01:24:36;;;;;;;1.57;0.90;;;14.40;99.90;;;;;;5078360;28;20566;-32
2022/10/01 01:27:21;;;;;;;1.47;1.00;;;14.30;99.90;;;;;;5089172;28;20210;-32
2022/10/01 01:30:07;;;;;;;1.03;0.83;;;14.30;99.90;;;;;;5092820;28;20201;-33
2022/10/01 01:32:45;;;;;;;1.53;0.90;;;14.40;99.90;;;;;;5087803;28;20203;-32
2022/10/01 01:35:31;;;;;;;0.63;0.63;;;14.40;99.90;;;;;;5098500;28;20222;-32
2022/10/01 01:38:04;;;;;;;1.10;0.90;;;14.40;99.90;;;;;;5090739;28;20202;-33
2022/10/01 01:40:35;;;;;;;1.70;0.63;;;14.40;99.90;;;;;;5094338;28;20263;-32
2022/10/01 01:43:16;;;;;;;1.03;0.60;;;14.40;99.90;;;;;;5085277;28;20261;-32
2022/10/01 01:45:44;;;;;;;0.80;0.70;;;14.40;99.90;;;;;;5088506;28;20202;-32
2022/10/01 01:48:16;;;;;;;1.90;0.80;;;14.40;99.90;;;;;;5097993;28;20585;-32
2022/10/01 01:51:05;;;;;;;0.90;0.70;;;14.40;99.90;;;;;;5102960;28;20214;-33
2022/10/01 01:53:34;;;;;;;0.70;0.70;;;14.40;99.90;;;;;;5096946;28;20213;-33
2022/10/01 01:56:06;;;;;;;2.03;0.70;;;14.40;99.90;;;;;;5092681;28;20237;-33
2022/10/01 01:58:41;;;;;;;1.47;0.60;;;14.40;99.90;;;;;;5087174;28;20215;-33
2022/10/01 02:01:39;;;;;;;2.43;0.70;;;14.40;99.90;;;;;;5089684;28;20312;-32
2022/10/01 02:04:11;;;;;;;1.23;0.40;;;14.30;99.90;;;;;;5087892;28;20541;-32
2022/10/01 02:07:16;;;;;;;1.17;0.80;;;14.40;99.90;;;;;;5089132;28;20206;-32
2022/10/01 02:10:14;;;;;;;1.83;0.83;;;14.40;99.90;;;;;;5087990;28;20828;-32
2022/10/01 02:12:55;;;;;;;2.53;0.63;;;14.40;99.90;;;;;;5090093;28;20198;-34
2022/10/01 02:15:39;;;;;;;0.90;0.50;;;14.30;99.90;;;;;;5086308;28;20893;-32
2022/10/01 02:18:21;;;;;;;0.60;0.60;;;14.30;99.90;;;;;;5091519;28;20716;-32
2022/10/01 02:20:58;;;;;;;1.50;0.63;;;14.30;99.90;;;;;;5089650;28;20222;-32
2022/10/01 02:23:30;;;;;;;1.90;0.70;;;14.30;99.90;;;;;;5086509;28;20198;-31
2022/10/01 02:26:03;;;;;;;1.07;0.50;;;14.30;99.90;;;;;;5094757;28;20708;-32
2022/10/01 02:28:32;;;;;;;1.90;0.43;;;14.40;99.90;;;;;;5088222;28;20253;-32
2022/10/01 02:31:01;;;;;;;1.60;0.50;;;14.40;99.90;;;;;;5088040;28;20221;-32
2022/10/01 02:33:31;;;;;;;3.37;0.80;;;14.40;99.90;;;;;;5083084;28;20218;-32
2022/10/01 02:36:02;;;;;;;1.40;0.50;;;14.40;99.90;;;;;;5080150;28;20223;-31
2022/10/01 02:38:35;;;;;;;1.83;0.50;;;14.30;99.90;;;;;;5083125;28;20570;-32
2022/10/01 02:41:06;;;;;;;1.80;0.47;;;14.30;99.90;;;;;;5089406;28;20206;-32
2022/10/01 02:43:37;;;;;;;0.73;0.40;;;14.40;99.90;;;;;;5089317;28;20205;-32
2022/10/01 02:46:22;;;;;;;0.50;0.50;;;14.40;99.90;;;;;;5091307;28;20197;-32
2022/10/01 02:48:52;;;;;;;0.70;0.40;;;14.40;99.90;;;;;;5087786;28;20719;-32
2022/10/01 02:51:41;;;;;;;2.00;0.37;;;14.40;99.90;;;;;;5086497;28;20590;-32
2022/10/01 02:54:57;;;;;;;2.00;0.47;;;14.40;99.90;;;;;;5084423;28;20202;-31
2022/10/01 02:57:27;;;;;;;0.77;0.50;;;14.30;99.90;;;;;;5088073;28;20606;-31
2022/10/01 03:00:00;;;;;;;0.77;0.40;;;14.40;99.90;;;;;;5090095;28;20213;-31
2022/10/01 03:02:30;;;;;;;0.50;0.30;;;14.40;99.90;;;;;;5090609;28;20221;-32
2022/10/01 03:05:00;;;;;;;0.47;0.30;;;14.40;99.90;;;;;;5087355;28;20209;-32
2022/10/01 03:07:30;;;;;;;1.07;0.40;;;14.40;99.90;;;;;;5083488;28;20229;-32
2022/10/01 03:10:01;;;;;;;0.40;0.20;;;14.40;99.90;;;;;;5079668;28;20588;-31
2022/10/01 03:12:28;;;;;;;0.70;0.30;;;14.40;99.90;;;;;;5089677;28;20195;-32
2022/10/01 03:14:58;;;;;;;0.70;0.30;;;14.50;99.90;;;;;;5091303;28;20809;-32
2022/10/01 03:17:30;;;;;;;0.50;0.30;;;14.40;99.90;;;;;;5087767;28;20237;-32
2022/10/01 03:20:00;;;;;;;1.23;0.30;;;14.50;99.90;;;;;;5091430;28;20571;-32
2022/10/01 03:22:27;;;;;;;0.43;0.20;;;14.50;99.90;;;;;;5084638;28;20649;-32
2022/10/01 03:24:57;;;;;;;0.40;0.40;;;14.50;99.90;;;;;;5089296;28;20233;-31
2022/10/01 03:27:26;;;;;;;1.47;0.40;;;14.60;99.90;;;;;;5090172;28;20264;-32
2022/10/01 03:29:57;;;;;;;0.37;0.30;;;14.50;99.90;;;;;;5089603;28;20299;-31
2022/10/01 03:32:24;;;;;;;0.50;0.40;;;14.50;99.90;;;;;;5091668;28;20831;-31
2022/10/01 03:34:53;;;;;;;0.40;0.37;;;14.60;99.90;;;;;;5088335;28;20634;-31
2022/10/01 03:37:20;;;;;;;0.87;0.40;;;14.60;99.90;;;;;;5083124;28;20221;-31
2022/10/01 03:39:52;;;;;;;0.30;0.30;;;14.60;99.90;;;;;;5085586;28;20336;-32
2022/10/01 03:42:19;;;;;;;0.60;0.50;;;14.60;99.90;;;;;;5088881;28;20215;-32
2022/10/01 03:44:49;;;;;;;0.37;0.30;;;14.60;99.90;;;;;;5089430;28;20565;-32
2022/10/01 03:47:21;;;;;;;0.70;0.33;;;14.70;99.90;;;;;;5093427;28;20289;-32
2022/10/01 03:49:51;;;;;;;0.70;0.30;;;14.70;99.90;;;;;;5105076;28;20607;-31
2022/10/01 03:52:23;;;;;;;0.60;0.20;;;14.70;99.90;;;;;;5098033;28;20256;-31
2022/10/01 03:54:53;;;;;;;0.33;0.33;;;14.70;99.90;;;;;;5093439;28;20695;-31
2022/10/01 03:57:22;;;;;;;0.47;0.30;;;14.70;99.90;;;;;;5099182;28;20607;-31
2022/10/01 03:59:56;;;;;;;1.23;0.30;;;14.70;99.90;;;;;;5093206;28;20195;-32
2022/10/01 04:02:26;;;;;;;0.30;0.27;;;14.70;99.90;;;;;;5089591;28;20545;-31
2022/10/01 04:04:53;;;;;;;0.23;0.23;;;14.80;99.90;;;;;;5087970;28;20670;-31
2022/10/01 04:07:21;;;;;;;0.30;0.30;;;14.80;99.90;;;;;;5089529;28;20208;-32
2022/10/01 04:09:50;;;;;;;0.20;0.20;;;14.90;99.90;;;;;;5089170;28;20221;-31
2022/10/01 04:12:20;;;;;;;0.60;0.30;;;14.90;99.90;;;;;;5092425;28;20210;-31
2022/10/01 04:14:47;;;;;;;0.33;0.30;;;14.90;99.90;;;;;;5091886;28;20203;-32
2022/10/01 04:17:17;;;;;;;0.33;0.20;;;14.90;99.90;;;;;;5092322;28;20657;-32
2022/10/01 04:19:44;;;;;;;0.30;0.30;;;15.00;99.90;;;;;;5092159;28;20219;-31
2022/10/01 04:22:14;;;;;;;0.30;0.20;;;15.00;99.90;;;;;;5087844;28;20544;-31
2022/10/01 04:24:43;;;;;;;1.13;0.30;;;15.00;99.90;;;;;;5089269;28;20575;-32
2022/10/01 04:27:14;;;;;;;0.30;0.30;;;15.00;99.90;;;;;;5093261;28;20220;-32
2022/10/01 04:29:45;;;;;;;0.40;0.33;;;15.10;99.90;;;;;;5092281;28;20305;-33
2022/10/01 04:32:20;;;;;;;0.30;0.27;;;15.10;99.90;;;;;;5093635;28;20186;-31
2022/10/01 04:34:53;;;;;;;0.80;0.27;;;15.10;99.90;;;;;;5091214;28;20197;-32
2022/10/01 04:37:21;;;;;;;0.60;0.30;;;15.10;99.90;;;;;;5096273;28;20202;-31
2022/10/01 04:39:49;;;;;;;1.27;0.30;;;15.10;99.90;;;;;;5089834;28;20207;-32
2022/10/01 04:42:18;;;;;;;0.70;0.20;;;15.20;99.90;;;;;;5092664;28;20197;-32
2022/10/01 04:44:47;;;;;;;0.50;0.20;;;15.30;99.90;;;;;;5095842;28;20246;-31
2022/10/01 04:47:15;;;;;;;0.60;0.30;;;15.30;99.90;;;;;;5094327;28;20202;-31
2022/10/01 04:49:42;;;;;;;0.30;0.20;;;15.30;99.90;;;;;;5092061;28;20274;-32
2022/10/01 04:52:10;;;;;;;0.37;0.30;;;15.30;99.90;;;;;;5088616;28;20202;-31
2022/10/01 04:54:39;;;;;;;1.43;0.20;;;15.30;99.90;;;;;;5088799;28;20246;-32
2022/10/01 04:57:09;;;;;;;0.67;0.20;;;15.30;99.90;;;;;;5092384;28;20215;-31
2022/10/01 04:59:36;;;;;;;0.50;0.40;;;15.40;99.90;;;;;;5087738;28;20214;-32
2022/10/01 05:02:05;;;;;;;0.30;0.30;;;15.40;99.90;;;;;;5075886;28;20207;-32
2022/10/01 05:04:32;;;;;;;0.53;0.47;;;15.40;99.90;;;;;;5074831;28;20626;-31
2022/10/01 05:07:00;;;;;;;0.77;0.20;;;15.50;99.90;;;;;;5081268;28;20276;-31
2022/10/01 05:09:29;;;;;;;0.53;0.40;;;15.50;99.90;;;;;;5077001;28;20245;-31
2022/10/01 05:11:58;;;;;;;1.57;0.40;;;15.50;99.90;;;;;;5077147;28;20205;-32
2022/10/01 05:14:26;;;;;;;1.30;0.20;;;15.50;99.90;;;;;;5079087;28;20210;-31
2022/10/01 05:16:58;;;;;;;0.50;0.30;;;15.50;99.90;;;;;;5082345;28;20214;-31
2022/10/01 05:19:27;;;;;;;0.53;0.30;;;15.60;99.90;;;;;;5087692;28;20362;-31
2022/10/01 05:22:03;;;;;;;0.50;0.43;;;15.60;99.90;;;;;;5090043;28;20321;-31
2022/10/01 05:24:30;;;;;;;0.60;0.40;;;15.60;99.90;;;;;;5089609;28;20198;-31
2022/10/01 05:26:59;;;;;;;0.67;0.50;;;15.60;99.90;;;;;;5084991;28;20272;-32
2022/10/01 05:29:29;;;;;;;0.77;0.50;;;15.70;99.90;;;;;;5084425;28;20203;-32
2022/10/01 05:31:57;;;;;;;0.53;0.33;;;15.70;99.90;;;;;;5073218;28;20211;-32
2022/10/01 05:34:32;;;;;;;0.97;0.50;;;15.70;99.90;;;;;;5067620;28;20235;-32
2022/10/01 05:36:59;;;;;;;0.40;0.40;;;15.70;99.90;;;;;;5066560;28;20759;-32
2022/10/01 05:39:27;;;;;;;1.37;0.80;;;15.70;99.90;;;;;;5076121;28;20214;-32
2022/10/01 05:41:57;;;;;;;1.20;0.60;;;15.70;99.90;;;;;;5086023;28;20212;-32
2022/10/01 05:44:36;;;;;;;0.90;0.50;;;15.70;99.90;;;;;;5073606;28;20190;-32
2022/10/01 05:47:07;;;;;;;0.90;0.60;;;15.80;99.90;;;;;;5076382;28;20299;-32
2022/10/01 05:49:35;;;;;;;0.73;0.57;;;15.80;99.90;;;;;;5077602;28;20589;-32
2022/10/01 05:52:03;;;;;;;3.50;0.90;;;15.80;99.90;;;;;;5098949;28;20208;-32
2022/10/01 05:54:30;;;;;;;2.40;0.67;;;15.80;99.90;;;;;;5085806;28;20215;-32
2022/10/01 05:56:59;;;;;;;1.37;0.67;;;15.80;99.90;;;;;;5080891;28;20242;-32
2022/10/01 05:59:27;;;;;;;1.60;0.57;;;15.80;99.90;;;;;;5080548;28;20198;-32
2022/10/01 06:01:58;;;;;;;0.77;0.60;;;15.80;99.90;;;;;;5077559;28;20603;-32
2022/10/01 06:04:25;;;;;;;1.17;0.50;;;15.80;99.90;;;;;;5077699;28;20290;-32
2022/10/01 06:06:53;;;;;;;1.10;0.60;;;15.80;99.90;;;;;;5086676;28;20203;-32
2022/10/01 06:09:21;;;;;;;0.70;0.50;;;15.80;99.90;;;;;;5085464;28;20203;-32
2022/10/01 06:11:48;;;;;;;2.07;1.17;;;15.80;99.90;;;;;;5085102;28;20415;-32
2022/10/01 06:14:20;;;;;;;4.43;1.00;;;15.80;99.90;;;;;;5084265;28;20231;-32
2022/10/01 06:16:49;;;;;;;3.13;1.10;;;15.90;99.90;;;;;;5085720;28;20762;-32
2022/10/01 06:19:17;;;;;;;4.10;1.00;;;15.90;99.90;;;;;;5084569;28;20259;-32
2022/10/01 06:21:44;;;;;;;2.63;0.90;;;15.90;99.90;;;;;;5084416;28;20305;-32
2022/10/01 06:24:11;;;;;;;1.57;1.03;;;15.90;99.90;;;;;;5086013;28;20604;-32
2022/10/01 06:26:41;;;;;;;1.40;0.80;;;15.90;99.90;;;;;;5084196;28;20703;-32
2022/10/01 06:29:09;;;;;;;1.33;0.83;;;16.00;99.90;;;;;;5084235;28;20240;-32
2022/10/01 06:31:39;;;;;;;1.80;0.80;;;16.00;99.90;;;;;;5083297;28;20234;-32
2022/10/01 06:34:09;;;;;;;0.87;0.70;;;16.00;99.90;;;;;;5083364;28;20207;-32
2022/10/01 06:36:39;;;;;;;2.47;1.10;;;16.00;99.90;;;;;;5085060;28;20223;-32
2022/10/01 06:39:06;;;;;;;3.10;0.90;;;16.00;99.90;;;;;;5084234;28;20210;-31
2022/10/01 06:41:35;;;;;;;2.87;1.00;;;16.00;99.90;;;;;;5081818;28;20183;-32
2022/10/01 06:44:08;;;;;;;1.73;1.20;;;16.10;99.90;;;;;;5084227;28;20289;-32
2022/10/01 06:46:39;;;;;;;2.27;1.10;;;16.10;99.90;;;;;;5084442;28;20780;-32
2022/10/01 06:49:07;;;;;;;3.07;1.07;;;16.10;99.90;;;;;;5082005;28;20248;-32
2022/10/01 06:54:27;;;;;;;2.03;1.10;;;16.20;99.90;;;;;;5075685;28;20211;-31
2022/10/01 06:56:56;;;;;;;2.13;0.83;;;16.20;99.90;;;;;;5083221;28;20214;-31
2022/10/01 06:59:23;;;;;;;3.47;1.67;;;16.20;99.90;;;;;;5086265;28;20693;-31
2022/10/01 07:01:52;;;;;;;2.43;1.27;;;16.30;99.90;;;;;;5084821;28;20642;-32
2022/10/01 07:04:22;;;;;;;3.53;0.80;;;16.30;99.90;;;;;;5085874;28;20202;-32
2022/10/01 07:06:49;;;;;;;2.90;0.97;;;16.40;99.90;;;;;;5085624;28;20261;-32
2022/10/01 07:09:17;;;;;;;1.53;0.80;;;16.40;99.90;;;;;;5084512;28;20297;-31
2022/10/01 07:11:46;;;;;;;3.30;0.97;;;16.40;99.90;;;;;;5085637;28;20207;-32
2022/10/01 07:14:13;;;;;;;2.33;1.07;;;16.40;99.90;;;;;;5084629;28;20220;-31
2022/10/01 07:16:40;;;;;;;2.20;1.10;;;16.40;99.90;;;;;;5083766;28;20773;-31
2022/10/01 07:19:08;;;;;;;2.20;1.17;;;16.50;99.90;;;;;;5085754;28;20237;-31
2022/10/01 07:21:37;;;;;;;6.10;1.90;;;16.50;99.90;;;;;;5085824;28;20225;-32
2022/10/01 07:24:05;;;;;;;4.57;1.40;;;16.50;99.90;;;;;;5084473;28;20593;-31
2022/10/01 07:26:32;;;;;;;3.10;1.50;;;16.50;99.90;;;;;;5087142;28;20199;-31
2022/10/01 07:29:01;;;;;;;3.13;1.27;;;16.50;99.90;;;;;;5081616;28;20317;-32
2022/10/01 07:31:28;;;;;;;3.67;1.50;;;16.60;99.90;;;;;;5083991;28;20291;-32
2022/10/01 07:33:57;;;;;;;4.50;1.60;;;16.60;99.90;;;;;;5084971;28;20228;-32
2022/10/01 07:36:24;;;;;;;3.93;1.60;;;16.60;99.90;;;;;;5084194;28;20722;-31
2022/10/01 07:38:51;;;;;;;3.33;1.33;;;16.70;99.90;;;;;;5086718;28;20198;-32
2022/10/01 07:41:23;;;;;;;3.17;1.90;;;16.80;99.90;;;;;;5088158;28;20305;-31
2022/10/01 07:43:53;;;;;;;2.17;1.60;;;16.80;99.90;;;;;;5077751;28;20211;-31
2022/10/01 07:46:20;;;;;;;9.43;2.00;;;16.90;99.90;;;;;;5076745;28;20211;-31
2022/10/01 07:48:50;;;;;;;4.67;2.30;;;16.90;99.90;;;;;;5082953;28;20717;-33
2022/10/01 07:51:18;;;;;;;4.87;2.67;;;17.00;99.90;;;;;;5089663;28;20206;-31
2022/10/01 07:53:45;;;;;;;2.97;2.30;;;17.00;99.90;;;;;;5089501;28;20256;-32
2022/10/01 07:56:15;;;;;;;5.87;2.73;;;17.10;99.90;;;;;;5089784;28;20288;-32
2022/10/01 07:58:42;;;;;;;8.30;3.23;;;17.20;99.90;;;;;;5090542;28;20203;-32
2022/10/01 08:01:10;;;;;;;6.70;3.10;;;17.20;99.90;;;;;;5084203;28;20195;-32
2022/10/01 08:03:40;;;;;;;7.30;3.60;;;17.20;99.90;;;;;;5081199;28;20205;-32
2022/10/01 08:06:10;;;;;;;8.97;3.40;;;17.30;99.90;;;;;;5090409;28;20207;-32
2022/10/01 08:08:38;;;;;;;15.10;3.80;;;17.30;99.90;;;;;;5089652;28;20207;-32
2022/10/01 08:11:12;;;;;;;9.83;4.07;;;17.30;99.90;;;;;;5085925;28;20206;-32
2022/10/01 08:13:40;;;;;;;9.50;3.63;;;17.40;99.90;;;;;;5089598;28;20195;-32
2022/10/01 08:16:10;;;;;;;7.83;3.50;;;17.40;99.90;;;;;;5080965;28;20713;-32
2022/10/01 08:18:43;;;;;;;12.73;3.80;;;17.50;99.90;;;;;;5086528;28;20239;-32
2022/10/01 08:21:11;;;;;;;11.13;4.03;;;17.40;99.90;;;;;;5089903;28;20664;-32
2022/10/01 08:23:38;;;;;;;12.83;4.50;;;17.50;99.90;;;;;;5081212;28;20759;-32
2022/10/01 08:26:10;;;;;;;12.47;3.97;;;17.50;99.90;;;;;;5089159;28;20238;-31
2022/10/01 08:28:39;;;;;;;11.63;3.87;;;17.50;99.90;;;;;;5086450;28;20222;-32
2022/10/01 08:31:09;;;;;;;9.77;3.30;;;17.50;99.90;;;;;;5088053;28;20260;-32
2022/10/01 08:33:39;;;;;;;8.57;3.40;;;17.50;99.90;;;;;;5088987;28;20364;-32
2022/10/01 08:36:09;;;;;;;10.10;3.27;;;17.50;99.90;;;;;;5084761;28;20671;-32
2022/10/01 08:38:36;;;;;;;11.63;3.63;;;17.60;99.90;;;;;;5083584;28;20187;-32
2022/10/01 08:41:16;;;;;;;9.63;3.00;;;17.60;99.90;;;;;;5085931;28;20203;-32
2022/10/01 08:43:50;;;;;;;5.30;2.63;;;17.70;99.90;;;;;;5084671;28;20199;-32
2022/10/01 08:46:26;;;;;;;12.20;3.40;;;17.70;99.90;;;;;;5084665;28;20218;-32
2022/10/01 08:49:14;;;;;;;8.67;2.90;;;17.70;99.90;;;;;;5087718;28;20285;-32
2022/10/01 08:51:47;;;;;;;10.83;3.17;;;17.80;99.90;;;;;;5087587;28;20219;-32
2022/10/01 08:54:33;;;;;;;10.07;3.57;;;17.80;99.90;;;;;;5081969;28;20230;-32
2022/10/01 08:57:08;;;;;;;10.43;3.47;;;17.90;99.90;;;;;;5082930;28;20313;-31
2022/10/01 08:59:41;;;;;;;11.30;3.60;;;17.90;99.90;;;;;;5088040;28;20195;-32
2022/10/01 09:02:22;;;;;;;11.30;3.40;;;18.00;99.90;;;;;;5085581;28;20207;-30
2022/10/01 09:04:56;;;;;;;10.57;3.80;;;18.00;99.90;;;;;;5084144;28;20268;-31
2022/10/01 09:08:15;;;;;;;11.47;3.67;;;18.00;99.90;;;;;;5085035;28;20203;-30
2022/10/01 09:10:45;;;;;;;11.50;3.77;;;18.00;99.90;;;;;;5066578;28;20575;-31
2022/10/01 09:13:40;;;;;;;13.17;3.67;;;18.00;99.90;;;;;;5078656;28;20219;-30
2022/10/01 09:16:45;;;;;;;8.13;3.10;;;18.10;99.90;;;;;;5084555;28;20203;-30
2022/10/01 09:19:42;;;;;;;14.07;4.13;;;18.10;99.90;;;;;;5085467;28;20230;-31
2022/10/01 09:22:13;;;;;;;8.63;3.00;;;18.10;99.90;;;;;;5085134;28;20218;-31
2022/10/01 09:24:48;;;;;;;9.87;3.90;;;18.10;99.90;;;;;;5082734;28;20191;-30
2022/10/01 09:27:24;;;;;;;10.67;3.70;;;18.10;99.90;;;;;;5068472;28;20569;-34
2022/10/01 09:30:15;;;;;;;14.17;4.60;;;18.10;99.90;;;;;;5077015;28;20202;-31
2022/10/01 09:33:08;;;;;;;12.80;4.57;;;18.20;99.90;;;;;;5066654;28;20248;-32
2022/10/01 09:35:55;;;;;;;15.13;5.27;;;18.10;99.90;;;;;;5077185;28;20223;-30
2022/10/01 09:38:43;;;;;;;13.60;5.27;;;18.10;99.90;;;;;;5084803;28;20297;-32
2022/10/01 09:41:11;;;;;;;12.17;4.17;;;18.10;99.90;;;;;;5086455;28;20245;-30
2022/10/01 09:43:43;;;;;;;13.53;4.60;;;18.00;99.90;;;;;;5082702;28;20202;-30
2022/10/01 09:46:15;;;;;;;13.43;4.47;;;18.00;99.90;;;;;;5090388;28;20221;-30
2022/10/01 09:49:02;;;;;;;10.73;4.10;;;18.00;99.90;;;;;;5104266;28;20199;-30
2022/10/01 09:51:38;;;;;;;10.77;4.00;;;18.00;99.90;;;;;;5088429;28;20252;-31
2022/10/01 09:54:13;;;;;;;9.47;3.83;;;17.90;99.90;;;;;;5084287;28;20207;-31
2022/10/01 09:56:52;;;;;;;10.20;3.80;;;17.90;99.90;;;;;;5083297;28;20222;-33
2022/10/01 09:59:30;;;;;;;12.80;4.20;;;17.90;99.90;;;;;;5082644;28;20206;-32
2022/10/01 10:01:59;;;;;;;14.83;4.23;;;17.90;99.90;;;;;;5077646;28;20205;-32
2022/10/01 10:04:27;;;;;;;11.83;4.47;;;17.80;99.90;;;;;;5082244;28;20242;-33
2022/10/01 10:07:04;;;;;;;9.30;4.40;;;17.90;99.90;;;;;;5082993;28;20569;-34
2022/10/01 10:09:34;;;;;;;10.30;3.80;;;17.90;99.90;;;;;;5080488;28;20674;-34
2022/10/01 10:12:02;;;;;;;9.73;4.23;;;17.90;99.90;;;;;;5084308;28;20211;-33
2022/10/01 10:14:36;;;;;;;10.40;3.73;;;17.90;99.90;;;;;;5082091;28;20762;-32
2022/10/01 10:17:10;;;;;;;11.63;3.97;;;17.90;99.90;;;;;;5067782;28;20235;-31
2022/10/01 10:19:38;;;;;;;12.47;3.80;;;18.00;99.90;;;;;;5079860;28;20207;-33
2022/10/01 10:22:27;;;;;;;12.27;3.83;;;18.10;99.90;;;;;;5084110;28;20201;-34
2022/10/01 10:25:09;;;;;;;11.00;3.60;;;18.10;99.90;;;;;;5083640;28;20285;-34
2022/10/01 10:27:36;;;;;;;12.43;3.80;;;18.20;99.90;;;;;;5081300;28;20214;-32
2022/10/01 10:30:14;;;;;;;10.80;3.77;;;18.20;99.90;;;;;;5078910;28;20471;-32
2022/10/01 10:32:47;;;;;;;8.90;3.33;;;18.30;99.90;;;;;;5082486;28;20300;-31
2022/10/01 10:35:19;;;;;;;15.50;3.90;;;18.30;99.90;;;;;;5073634;28;20632;-34
2022/10/01 10:37:51;;;;;;;11.17;3.30;;;18.30;99.90;;;;;;5069113;28;20230;-33
2022/10/01 10:40:26;;;;;;;8.13;3.50;;;18.30;99.90;;;;;;5082218;28;20225;-33
2022/10/01 10:42:57;;;;;;;9.87;3.60;;;18.40;99.90;;;;;;5083247;28;20241;-34
2022/10/01 10:45:35;;;;;;;11.50;3.83;;;18.40;99.90;;;;;;5085108;28;20211;-33
2022/10/01 10:48:05;;;;;;;9.50;3.70;;;18.40;99.90;;;;;;5074383;28;20207;-34
2022/10/01 10:50:42;;;;;;;12.20;4.07;;;18.50;99.90;;;;;;5084711;28;20207;-31
2022/10/01 10:53:26;;;;;;;13.33;4.57;;;18.50;99.90;;;;;;5074452;28;20691;-32
2022/10/01 10:56:02;;;;;;;15.17;4.13;;;18.50;99.90;;;;;;5082975;28;20234;-34
2022/10/01 10:58:39;;;;;;;12.27;4.07;;;18.60;99.90;;;;;;5080673;28;20214;-33
2022/10/01 11:01:15;;;;;;;12.97;3.50;;;18.60;99.90;;;;;;5081849;28;20203;-33
2022/10/01 11:03:59;;;;;;;12.23;4.30;;;18.60;99.90;;;;;;5082612;28;20676;-33
2022/10/01 11:06:26;;;;;;;12.17;4.20;;;18.60;99.90;;;;;;5072475;28;20207;-32
2022/10/01 11:09:06;;;;;;;12.27;4.23;;;18.60;99.90;;;;;;5081607;28;20192;-31
2022/10/01 11:12:04;;;;;;;9.07;4.07;;;18.50;99.90;;;;;;5076572;28;20563;-31
2022/10/01 11:14:48;;;;;;;10.00;3.87;;;18.50;99.90;;;;;;5065197;28;20567;-31
2022/10/01 11:17:17;;;;;;;11.73;4.10;;;18.50;99.90;;;;;;5082497;28;20223;-30
2022/10/01 11:20:12;;;;;;;17.30;4.50;;;18.50;99.90;;;;;;5078058;28;20575;-31
2022/10/01 11:22:44;;;;;;;11.70;4.27;;;18.50;99.90;;;;;;5084634;28;20305;-31
2022/10/01 11:25:26;;;;;;;8.57;3.80;;;18.50;99.90;;;;;;5084380;28;20584;-33
2022/10/01 11:27:59;;;;;;;10.83;4.47;;;18.50;99.90;;;;;;5083630;28;20206;-31
2022/10/01 11:30:41;;;;;;;9.37;3.70;;;18.50;99.90;;;;;;5072903;28;20215;-33
2022/10/01 11:33:43;;;;;;;11.53;4.23;;;18.50;99.90;;;;;;5087464;28;20198;-34
2022/10/01 11:36:40;;;;;;;10.33;4.50;;;18.50;99.90;;;;;;5063155;28;20206;-33
2022/10/01 11:39:19;;;;;;;8.47;3.73;;;18.50;99.90;;;;;;5079055;28;20211;-32
2022/10/01 11:41:55;;;;;;;11.03;4.20;;;18.50;99.90;;;;;;5082907;28;20744;-34
2022/10/01 11:44:33;;;;;;;12.47;4.20;;;18.60;99.90;;;;;;5079189;28;20199;-33
2022/10/01 11:47:27;;;;;;;9.30;3.60;;;18.60;99.90;;;;;;5084250;28;20228;-31
2022/10/01 11:50:06;;;;;;;9.47;3.80;;;18.60;99.90;;;;;;5084212;28;20599;-30
2022/10/01 11:52:51;;;;;;;13.87;4.13;;;18.60;99.90;;;;;;5083248;28;20207;-30
2022/10/01 11:58:53;;;;;;;10.53;3.73;;;18.60;99.90;;;;;;5083734;28;20587;-33
2022/10/01 12:01:43;;;;;;;12.87;3.83;;;18.50;99.90;;;;;;5077915;28;20689;-33
2022/10/01 12:04:32;;;;;;;9.10;3.23;;;18.50;99.90;;;;;;5082190;28;20203;-34
2022/10/01 12:07:19;;;;;;;15.73;3.53;;;18.60;99.90;;;;;;5077573;28;20267;-34
2022/10/01 12:10:15;;;;;;;5.83;2.63;;;18.50;99.90;;;;;;5081674;28;20199;-33
2022/10/01 12:13:02;;;;;;;11.37;3.10;;;18.50;99.90;;;;;;5085194;28;20589;-34
2022/10/01 12:16:00;;;;;;;10.20;3.10;;;18.50;99.90;;;;;;5088534;28;20206;-30
2022/10/01 12:18:37;;;;;;;11.60;3.27;;;18.60;99.90;;;;;;5087529;28;20239;-32
2022/10/01 12:21:18;;;;;;;12.70;3.27;;;18.50;99.90;;;;;;5086060;28;20225;-32
2022/10/01 12:23:59;;;;;;;7.53;2.63;;;18.50;99.90;;;;;;5088567;28;20309;-30
2022/10/01 12:26:40;;;;;;;7.70;2.47;;;18.50;99.90;;;;;;5088283;28;20202;-33
2022/10/01 12:29:37;;;;;;;9.53;2.60;;;18.50;99.90;;;;;;5085456;28;20225;-33
2022/10/01 12:32:04;;;;;;;8.87;2.77;;;18.50;99.90;;;;;;5086065;28;20752;-33
2022/10/01 12:34:56;;;;;;;10.37;2.80;;;18.40;99.90;;;;;;5084875;28;20202;-33
2022/10/01 12:37:48;;;;;;;11.23;2.50;;;18.40;99.90;;;;;;5086176;28;20215;-32
2022/10/01 12:40:21;;;;;;;12.40;3.10;;;18.40;99.90;;;;;;5084525;28;20588;-32
2022/10/01 12:43:30;;;;;;;9.40;2.00;;;18.30;99.90;;;;;;5085856;28;20206;-31
2022/10/01 12:46:19;;;;;;;6.95;2.00;;;18.40;99.90;;;;;;5081087;28;20206;-31
2022/10/01 12:48:59;;;;;;;10.57;2.20;;;18.30;99.90;;;;;;5086886;28;20798;-31
2022/10/01 12:51:51;;;;;;;13.53;2.10;;;18.30;99.90;;;;;;5075663;28;20624;-32
2022/10/01 12:54:50;;;;;;;10.83;2.17;;;18.30;99.90;;;;;;5079452;28;20293;-32
2022/10/01 12:57:44;;;;;;;6.47;2.13;;;18.30;99.90;;;;;;5083730;28;20627;-32
2022/10/01 13:00:14;;;;;;;10.87;2.63;;;18.30;99.90;;;;;;5086139;28;20329;-32
2022/10/01 13:03:03;;;;;;;8.03;2.20;;;18.40;99.90;;;;;;5085894;28;20206;-31
2022/10/01 13:05:53;;;;;;;7.40;2.10;;;18.40;99.90;;;;;;5067193;28;20212;-32
2022/10/01 13:08:38;;;;;;;8.43;1.87;;;18.40;99.90;;;;;;5074057;28;20215;-31
2022/10/01 13:11:36;;;;;;;10.47;2.87;;;18.40;99.90;;;;;;5075718;28;20202;-31
2022/10/01 13:14:06;;;;;;;10.50;2.20;;;18.40;99.90;;;;;;5077368;28;20207;-32
2022/10/01 13:16:48;;;;;;;8.27;2.27;;;18.50;99.90;;;;;;5081763;28;21057;-31
2022/10/01 13:19:23;;;;;;;11.43;2.27;;;18.50;99.90;;;;;;5074033;28;20246;-31
2022/10/01 13:21:56;;;;;;;8.70;1.87;;;18.50;99.90;;;;;;5075497;28;20362;-31
2022/10/01 13:24:31;;;;;;;8.13;2.53;;;18.50;99.90;;;;;;5071943;28;20195;-32
2022/10/01 13:27:16;;;;;;;11.33;2.57;;;18.50;99.90;;;;;;5081635;28;20207;-31
2022/10/01 13:29:58;;;;;;;7.87;1.83;;;18.50;99.90;;;;;;5088282;28;20264;-32